PWSweather.com
Personal Weather Stations
Station Observations
GEELONGWX1
Bell Post Hill, GeelongAU

Bell Post HillGeelongAU

Lat: -38.101, Lon: 144.326

Elevation: 204

Station Type: Davis Vantage Pro2

http://www.geelongweather.com

High Low Average
Temperature 79.0°F26.1°C 57.8°F14.3°C 67.7°F19.8°C
Dew Point 62.0°F16.7°C 54.5°F12.5°C 58.6°F14.8°C
Winds 7.4 mph 11.9 kmh Calm Calm 1.0 mph S1.6 kmh S
Wind Gusts 16.0 mph25.7 kmh -- 2.0 mph3.2 kmh
Humidity 91% 49% 74%
Pressure 29.76 in1007.8 mb 29.62 in1003.0 mb -
Precipitation 0.00 in0.0 mm - -
Hour Temp Dew Point Humidity Winds Wind Gusts Pressure Precip Precip Rate Daily Precip Total
12:00 AM 61.9°F16.6°C 55.7°F13.2°C 80% Calm Calm -- 29.76 in1007.8 mb 0.00 in0.0 mm 0.00 in/hr0.0 mm/hr 0.00 in0.0 mm
12:10 AM 61.8°F16.6°C 55.9°F13.3°C 81% Calm Calm -- 29.76 in1007.8 mb 0.00 in0.0 mm 0.00 in/hr0.0 mm/hr 0.00 in0.0 mm
12:20 AM 61.8°F16.6°C 55.9°F13.3°C 81% Calm Calm -- 29.75 in1007.5 mb 0.00 in0.0 mm 0.00 in/hr0.0 mm/hr 0.00 in0.0 mm
12:30 AM 61.7°F16.5°C 55.8°F13.2°C 81% Calm Calm -- 29.75 in1007.5 mb 0.00 in0.0 mm 0.00 in/hr0.0 mm/hr 0.00 in0.0 mm
12:40 AM 61.5°F16.4°C 55.6°F13.1°C 81% Calm Calm -- 29.75 in1007.5 mb 0.00 in0.0 mm 0.00 in/hr0.0 mm/hr 0.00 in0.0 mm
12:50 AM 61.4°F16.3°C 55.8°F13.2°C 82% Calm Calm -- 29.75 in1007.5 mb 0.00 in0.0 mm 0.00 in/hr0.0 mm/hr 0.00 in0.0 mm
01:00 AM 61.3°F16.3°C 55.8°F13.2°C 82% Calm Calm -- 29.75 in1007.5 mb 0.00 in0.0 mm 0.00 in/hr0.0 mm/hr 0.00 in0.0 mm
01:10 AM 61.1°F16.2°C 55.6°F13.1°C 82% Calm Calm -- 29.74 in1007.1 mb 0.00 in0.0 mm 0.00 in/hr0.0 mm/hr 0.00 in0.0 mm
01:20 AM 60.9°F16.1°C 55.3°F12.9°C 82% Calm Calm -- 29.74 in1007.1 mb 0.00 in0.0 mm 0.00 in/hr0.0 mm/hr 0.00 in0.0 mm
01:30 AM 60.7°F15.9°C 55.5°F13.1°C 83% Calm Calm -- 29.74 in1007.1 mb 0.00 in0.0 mm 0.00 in/hr0.0 mm/hr 0.00 in0.0 mm
01:40 AM 60.5°F15.8°C 55.3°F12.9°C 83% Calm Calm -- 29.74 in1007.1 mb 0.00 in0.0 mm 0.00 in/hr0.0 mm/hr 0.00 in0.0 mm
01:50 AM 60.4°F15.8°C 55.6°F13.1°C 84% Calm Calm -- 29.73 in1006.8 mb 0.00 in0.0 mm 0.00 in/hr0.0 mm/hr 0.00 in0.0 mm
02:00 AM 60.2°F15.7°C 55.3°F12.9°C 84% Calm Calm -- 29.73 in1006.8 mb 0.00 in0.0 mm 0.00 in/hr0.0 mm/hr 0.00 in0.0 mm
02:10 AM 59.9°F15.5°C 55.1°F12.8°C 84% Calm Calm -- 29.73 in1006.8 mb 0.00 in0.0 mm 0.00 in/hr0.0 mm/hr 0.00 in0.0 mm
02:20 AM 59.6°F15.3°C 55.1°F12.8°C 85% Calm Calm -- 29.72 in1006.4 mb 0.00 in0.0 mm 0.00 in/hr0.0 mm/hr 0.00 in0.0 mm
02:30 AM 59.3°F15.2°C 55.1°F12.8°C 86% Calm Calm -- 29.72 in1006.4 mb 0.00 in0.0 mm 0.00 in/hr0.0 mm/hr 0.00 in0.0 mm
02:40 AM 59.3°F15.2°C 55.4°F13.0°C 87% Calm Calm -- 29.71 in1006.1 mb 0.00 in0.0 mm 0.00 in/hr0.0 mm/hr 0.00 in0.0 mm
02:50 AM 59.5°F15.3°C 55.6°F13.1°C 87% Calm Calm -- 29.71 in1006.1 mb 0.00 in0.0 mm 0.00 in/hr0.0 mm/hr 0.00 in0.0 mm
03:00 AM 59.6°F15.3°C 55.7°F13.2°C 87% Calm Calm -- 29.71 in1006.1 mb 0.00 in0.0 mm 0.00 in/hr0.0 mm/hr 0.00 in0.0 mm
03:10 AM 59.6°F15.3°C 55.4°F13.0°C 86% Calm Calm -- 29.71 in1006.1 mb 0.00 in0.0 mm 0.00 in/hr0.0 mm/hr 0.00 in0.0 mm
03:20 AM 59.5°F15.3°C 55.3°F12.9°C 86% Calm Calm -- 29.71 in1006.1 mb 0.00 in0.0 mm 0.00 in/hr0.0 mm/hr 0.00 in0.0 mm
03:30 AM 59.3°F15.2°C 55.1°F12.8°C 86% Calm Calm -- 29.71 in1006.1 mb 0.00 in0.0 mm 0.00 in/hr0.0 mm/hr 0.00 in0.0 mm
03:40 AM 58.9°F14.9°C 55.0°F12.8°C 87% Calm Calm -- 29.71 in1006.1 mb 0.00 in0.0 mm 0.00 in/hr0.0 mm/hr 0.00 in0.0 mm
03:50 AM 58.7°F14.8°C 55.2°F12.9°C 88% Calm Calm -- 29.71 in1006.1 mb 0.00 in0.0 mm 0.00 in/hr0.0 mm/hr 0.00 in0.0 mm
04:00 AM 58.5°F14.7°C 55.0°F12.8°C 88% Calm Calm -- 29.71 in1006.1 mb 0.00 in0.0 mm 0.00 in/hr0.0 mm/hr 0.00 in0.0 mm
04:10 AM 58.6°F14.8°C 55.1°F12.8°C 88% Calm Calm -- 29.70 in1005.8 mb 0.00 in0.0 mm 0.00 in/hr0.0 mm/hr 0.00 in0.0 mm
04:20 AM 58.9°F14.9°C 55.4°F13.0°C 88% Calm Calm -- 29.70 in1005.8 mb 0.00 in0.0 mm 0.00 in/hr0.0 mm/hr 0.00 in0.0 mm
04:30 AM 59.2°F15.1°C 55.6°F13.1°C 88% Calm Calm -- 29.70 in1005.8 mb 0.00 in0.0 mm 0.00 in/hr0.0 mm/hr 0.00 in0.0 mm
04:40 AM 59.4°F15.2°C 55.5°F13.1°C 87% Calm Calm -- 29.70 in1005.8 mb 0.00 in0.0 mm 0.00 in/hr0.0 mm/hr 0.00 in0.0 mm
04:50 AM 59.6°F15.3°C 55.7°F13.2°C 87% Calm Calm -- 29.70 in1005.8 mb 0.00 in0.0 mm 0.00 in/hr0.0 mm/hr 0.00 in0.0 mm
05:00 AM 59.6°F15.3°C 55.4°F13.0°C 86% Calm Calm -- 29.70 in1005.8 mb 0.00 in0.0 mm 0.00 in/hr0.0 mm/hr 0.00 in0.0 mm
05:10 AM 59.5°F15.3°C 55.3°F12.9°C 86% Calm Calm -- 29.71 in1006.1 mb 0.00 in0.0 mm 0.00 in/hr0.0 mm/hr 0.00 in0.0 mm
05:20 AM 59.1°F15.1°C 54.9°F12.7°C 86% Calm Calm -- 29.71 in1006.1 mb 0.00 in0.0 mm 0.00 in/hr0.0 mm/hr 0.00 in0.0 mm
05:30 AM 58.7°F14.8°C 54.5°F12.5°C 86% Calm Calm -- 29.71 in1006.1 mb 0.00 in0.0 mm 0.00 in/hr0.0 mm/hr 0.00 in0.0 mm
05:40 AM 58.3°F14.6°C 54.5°F12.5°C 87% Calm Calm -- 29.71 in1006.1 mb 0.00 in0.0 mm 0.00 in/hr0.0 mm/hr 0.00 in0.0 mm
05:50 AM 58.0°F14.4°C 54.5°F12.5°C 88% Calm Calm -- 29.71 in1006.1 mb 0.00 in0.0 mm 0.00 in/hr0.0 mm/hr 0.00 in0.0 mm
06:00 AM 57.8°F14.3°C 54.6°F12.6°C 89% Calm Calm -- 29.71 in1006.1 mb 0.00 in0.0 mm 0.00 in/hr0.0 mm/hr 0.00 in0.0 mm
06:10 AM 58.1°F14.5°C 55.5°F13.1°C 91% Calm Calm -- 29.71 in1006.1 mb 0.00 in0.0 mm 0.00 in/hr0.0 mm/hr 0.00 in0.0 mm
06:20 AM 59.0°F15.0°C 56.1°F13.4°C 90% Calm Calm -- 29.71 in1006.1 mb 0.00 in0.0 mm 0.00 in/hr0.0 mm/hr 0.00 in0.0 mm
06:30 AM 60.0°F15.6°C 56.8°F13.8°C 89% Calm Calm -- 29.71 in1006.1 mb 0.00 in0.0 mm 0.00 in/hr0.0 mm/hr 0.00 in0.0 mm
06:40 AM 61.4°F16.3°C 57.2°F14.0°C 86% Calm Calm 4.0 mph6.4 kmh 29.72 in1006.4 mb 0.00 in0.0 mm 0.00 in/hr0.0 mm/hr 0.00 in0.0 mm
06:50 AM 62.1°F16.7°C 57.6°F14.2°C 85% 0.2 mph SSE0.3 kmh SSE -- 29.73 in1006.8 mb 0.00 in0.0 mm 0.00 in/hr0.0 mm/hr 0.00 in0.0 mm
07:00 AM 62.6°F17.0°C 57.7°F14.3°C 84% Calm Calm -- 29.73 in1006.8 mb 0.00 in0.0 mm 0.00 in/hr0.0 mm/hr 0.00 in0.0 mm
07:10 AM 62.9°F17.2°C 57.7°F14.3°C 83% Calm Calm -- 29.72 in1006.4 mb 0.00 in0.0 mm 0.00 in/hr0.0 mm/hr 0.00 in0.0 mm
07:20 AM 63.4°F17.4°C 58.1°F14.5°C 83% Calm Calm 1.0 mph1.6 kmh 29.74 in1007.1 mb 0.00 in0.0 mm 0.00 in/hr0.0 mm/hr 0.00 in0.0 mm
07:30 AM 63.8°F17.7°C 58.2°F14.6°C 82% Calm Calm -- 29.74 in1007.1 mb 0.00 in0.0 mm 0.00 in/hr0.0 mm/hr 0.00 in0.0 mm
07:40 AM 64.4°F18.0°C 58.1°F14.5°C 80% 0.5 mph E0.8 kmh E -- 29.73 in1006.8 mb 0.00 in0.0 mm 0.00 in/hr0.0 mm/hr 0.00 in0.0 mm
07:50 AM 65.2°F18.4°C 58.5°F14.7°C 79% 2.8 mph SE4.5 kmh SE 4.0 mph6.4 kmh 29.74 in1007.1 mb 0.00 in0.0 mm 0.00 in/hr0.0 mm/hr 0.00 in0.0 mm
08:00 AM 65.0°F18.3°C 58.4°F14.7°C 79% Calm Calm 3.0 mph4.8 kmh 29.74 in1007.1 mb 0.00 in0.0 mm 0.00 in/hr0.0 mm/hr 0.00 in0.0 mm
08:10 AM 65.1°F18.4°C 58.4°F14.7°C 79% Calm Calm -- 29.74 in1007.1 mb 0.00 in0.0 mm 0.00 in/hr0.0 mm/hr 0.00 in0.0 mm
08:20 AM 65.0°F18.3°C 58.3°F14.6°C 79% 1.0 mph ESE1.6 kmh ESE -- 29.74 in1007.1 mb 0.00 in0.0 mm 0.00 in/hr0.0 mm/hr 0.00 in0.0 mm
08:30 AM 65.2°F18.4°C 58.5°F14.7°C 79% Calm Calm -- 29.74 in1007.1 mb 0.00 in0.0 mm 0.00 in/hr0.0 mm/hr 0.00 in0.0 mm
08:40 AM 65.2°F18.4°C 58.5°F14.7°C 79% Calm Calm -- 29.74 in1007.1 mb 0.00 in0.0 mm 0.00 in/hr0.0 mm/hr 0.00 in0.0 mm
08:50 AM 65.6°F18.7°C 59.0°F15.0°C 79% 0.5 mph ESE0.8 kmh ESE -- 29.74 in1007.1 mb 0.00 in0.0 mm 0.00 in/hr0.0 mm/hr 0.00 in0.0 mm
09:10 AM 67.0°F19.4°C 58.8°F14.9°C 75% Calm Calm -- 29.73 in1006.8 mb 0.00 in0.0 mm 0.00 in/hr0.0 mm/hr 0.00 in0.0 mm
09:20 AM 67.0°F19.4°C 58.8°F14.9°C 75% Calm Calm -- 29.73 in1006.8 mb 0.00 in0.0 mm 0.00 in/hr0.0 mm/hr 0.00 in0.0 mm
09:30 AM 68.1°F20.1°C 59.5°F15.3°C 74% Calm Calm -- 29.73 in1006.8 mb 0.00 in0.0 mm 0.00 in/hr0.0 mm/hr 0.00 in0.0 mm
09:40 AM 69.4°F20.8°C 59.6°F15.3°C 71% Calm Calm -- 29.73 in1006.8 mb 0.00 in0.0 mm 0.00 in/hr0.0 mm/hr 0.00 in0.0 mm
09:50 AM 69.7°F20.9°C 59.1°F15.1°C 69% Calm Calm -- 29.73 in1006.8 mb 0.00 in0.0 mm 0.00 in/hr0.0 mm/hr 0.00 in0.0 mm
10:00 AM 70.6°F21.4°C 59.9°F15.5°C 69% Calm Calm -- 29.73 in1006.8 mb 0.00 in0.0 mm 0.00 in/hr0.0 mm/hr 0.00 in0.0 mm
10:10 AM 71.2°F21.8°C 60.1°F15.6°C 68% Calm Calm -- 29.73 in1006.8 mb 0.00 in0.0 mm 0.00 in/hr0.0 mm/hr 0.00 in0.0 mm
10:20 AM 72.5°F22.5°C 59.6°F15.3°C 64% Calm Calm -- 29.73 in1006.8 mb 0.00 in0.0 mm 0.00 in/hr0.0 mm/hr 0.00 in0.0 mm
10:30 AM 73.1°F22.8°C 59.7°F15.4°C 63% Calm Calm -- 29.73 in1006.8 mb 0.00 in0.0 mm 0.00 in/hr0.0 mm/hr 0.00 in0.0 mm
10:40 AM 73.6°F23.1°C 59.8°F15.4°C 62% Calm Calm -- 29.71 in1006.1 mb 0.00 in0.0 mm 0.00 in/hr0.0 mm/hr 0.00 in0.0 mm
10:50 AM 73.9°F23.3°C 59.6°F15.3°C 61% Calm Calm -- 29.71 in1006.1 mb 0.00 in0.0 mm 0.00 in/hr0.0 mm/hr 0.00 in0.0 mm
11:00 AM 74.8°F23.8°C 60.5°F15.8°C 61% 2.5 mph SSE4.0 kmh SSE 7.0 mph11.3 kmh 29.71 in1006.1 mb 0.00 in0.0 mm 0.00 in/hr0.0 mm/hr 0.00 in0.0 mm
11:10 AM 75.5°F24.2°C 60.2°F15.7°C 59% Calm Calm -- 29.70 in1005.8 mb 0.00 in0.0 mm 0.00 in/hr0.0 mm/hr 0.00 in0.0 mm
11:20 AM 75.8°F24.3°C 60.0°F15.6°C 58% 3.2 mph N5.1 kmh N 5.0 mph8.0 kmh 29.70 in1005.8 mb 0.00 in0.0 mm 0.00 in/hr0.0 mm/hr 0.00 in0.0 mm
11:30 AM 76.3°F24.6°C 60.0°F15.6°C 57% 1.6 mph N2.6 kmh N 8.0 mph12.9 kmh 29.70 in1005.8 mb 0.00 in0.0 mm 0.00 in/hr0.0 mm/hr 0.00 in0.0 mm
11:40 AM 77.1°F25.1°C 60.2°F15.7°C 56% 2.5 mph E4.0 kmh E 11.0 mph17.7 kmh 29.70 in1005.8 mb 0.00 in0.0 mm 0.00 in/hr0.0 mm/hr 0.00 in0.0 mm
11:50 AM 77.7°F25.4°C 59.7°F15.4°C 54% 1.4 mph SE2.3 kmh SE 3.0 mph4.8 kmh 29.69 in1005.4 mb 0.00 in0.0 mm 0.00 in/hr0.0 mm/hr 0.00 in0.0 mm
12:00 PM 78.7°F25.9°C 60.1°F15.6°C 53% 3.3 mph E5.3 kmh E 6.0 mph9.7 kmh 29.69 in1005.4 mb 0.00 in0.0 mm 0.00 in/hr0.0 mm/hr 0.00 in0.0 mm
12:10 PM 78.5°F25.8°C 59.4°F15.2°C 52% 0.5 mph E0.8 kmh E -- 29.68 in1005.1 mb 0.00 in0.0 mm 0.00 in/hr0.0 mm/hr 0.00 in0.0 mm
12:20 PM 78.2°F25.7°C 59.7°F15.4°C 53% 3.0 mph ENE4.8 kmh ENE 7.0 mph11.3 kmh 29.68 in1005.1 mb 0.00 in0.0 mm 0.00 in/hr0.0 mm/hr 0.00 in0.0 mm
12:30 PM 78.6°F25.9°C 60.5°F15.8°C 54% Calm Calm -- 29.68 in1005.1 mb 0.00 in0.0 mm 0.00 in/hr0.0 mm/hr 0.00 in0.0 mm
12:40 PM 79.0°F26.1°C 60.4°F15.8°C 53% 3.3 mph E5.3 kmh E 5.0 mph8.0 kmh 29.67 in1004.7 mb 0.00 in0.0 mm 0.00 in/hr0.0 mm/hr 0.00 in0.0 mm
12:50 PM 78.9°F26.1°C 59.7°F15.4°C 52% 3.1 mph E5.0 kmh E 11.0 mph17.7 kmh 29.67 in1004.7 mb 0.00 in0.0 mm 0.00 in/hr0.0 mm/hr 0.00 in0.0 mm
01:00 PM 78.7°F25.9°C 59.6°F15.3°C 52% 1.3 mph SE2.1 kmh SE 1.0 mph1.6 kmh 29.67 in1004.7 mb 0.00 in0.0 mm 0.00 in/hr0.0 mm/hr 0.00 in0.0 mm
01:10 PM 78.4°F25.8°C 59.3°F15.2°C 52% 7.2 mph ESE11.6 kmh ESE 16.0 mph25.7 kmh 29.67 in1004.7 mb 0.00 in0.0 mm 0.00 in/hr0.0 mm/hr 0.00 in0.0 mm
01:20 PM 78.6°F25.9°C 59.5°F15.3°C 52% 6.0 mph N9.7 kmh N 13.0 mph20.9 kmh 29.67 in1004.7 mb 0.00 in0.0 mm 0.00 in/hr0.0 mm/hr 0.00 in0.0 mm
01:30 PM 78.8°F26.0°C 58.6°F14.8°C 50% 0.1 mph SE0.2 kmh SE 12.0 mph19.3 kmh 29.67 in1004.7 mb 0.00 in0.0 mm 0.00 in/hr0.0 mm/hr 0.00 in0.0 mm
01:40 PM 78.7°F25.9°C 58.0°F14.4°C 49% 3.4 mph N5.5 kmh N 9.0 mph14.5 kmh 29.66 in1004.4 mb 0.00 in0.0 mm 0.00 in/hr0.0 mm/hr 0.00 in0.0 mm
01:50 PM 78.4°F25.8°C 58.8°F14.9°C 51% 6.9 mph SSE11.1 kmh SSE 13.0 mph20.9 kmh 29.66 in1004.4 mb 0.00 in0.0 mm 0.00 in/hr0.0 mm/hr 0.00 in0.0 mm
02:00 PM 78.4°F25.8°C 58.8°F14.9°C 51% 0.1 mph E0.2 kmh E 7.0 mph11.3 kmh 29.66 in1004.4 mb 0.00 in0.0 mm 0.00 in/hr0.0 mm/hr 0.00 in0.0 mm
02:10 PM 78.3°F25.7°C 57.5°F14.2°C 49% 3.8 mph SE6.1 kmh SE 10.0 mph16.1 kmh 29.65 in1004.1 mb 0.00 in0.0 mm 0.00 in/hr0.0 mm/hr 0.00 in0.0 mm
02:20 PM 78.2°F25.7°C 58.0°F14.4°C 50% 5.7 mph N9.2 kmh N 15.0 mph24.1 kmh 29.65 in1004.1 mb 0.00 in0.0 mm 0.00 in/hr0.0 mm/hr 0.00 in0.0 mm
02:30 PM 78.0°F25.6°C 57.3°F14.1°C 49% Calm Calm -- 29.65 in1004.1 mb 0.00 in0.0 mm 0.00 in/hr0.0 mm/hr 0.00 in0.0 mm
02:40 PM 77.6°F25.3°C 58.0°F14.4°C 51% 3.8 mph SE6.1 kmh SE 12.0 mph19.3 kmh 29.65 in1004.1 mb 0.00 in0.0 mm 0.00 in/hr0.0 mm/hr 0.00 in0.0 mm
02:50 PM 77.3°F25.2°C 58.3°F14.6°C 52% 6.8 mph SE10.9 kmh SE 12.0 mph19.3 kmh 29.64 in1003.7 mb 0.00 in0.0 mm 0.00 in/hr0.0 mm/hr 0.00 in0.0 mm
03:00 PM 77.5°F25.3°C 58.5°F14.7°C 52% 4.0 mph SE6.4 kmh SE 1.0 mph1.6 kmh 29.64 in1003.7 mb 0.00 in0.0 mm 0.00 in/hr0.0 mm/hr 0.00 in0.0 mm
03:10 PM 76.7°F24.8°C 58.3°F14.6°C 53% 2.6 mph N4.2 kmh N 14.0 mph22.5 kmh 29.64 in1003.7 mb 0.00 in0.0 mm 0.00 in/hr0.0 mm/hr 0.00 in0.0 mm
03:20 PM 76.9°F24.9°C 58.4°F14.7°C 53% 4.8 mph S7.7 kmh S 8.0 mph12.9 kmh 29.64 in1003.7 mb 0.00 in0.0 mm 0.00 in/hr0.0 mm/hr 0.00 in0.0 mm
03:30 PM 76.4°F24.7°C 59.5°F15.3°C 56% 5.8 mph SE9.3 kmh SE 11.0 mph17.7 kmh 29.64 in1003.7 mb 0.00 in0.0 mm 0.00 in/hr0.0 mm/hr 0.00 in0.0 mm
03:40 PM 76.4°F24.7°C 59.5°F15.3°C 56% 5.1 mph SE8.2 kmh SE 15.0 mph24.1 kmh 29.64 in1003.7 mb 0.00 in0.0 mm 0.00 in/hr0.0 mm/hr 0.00 in0.0 mm
03:50 PM 76.4°F24.7°C 60.0°F15.6°C 57% 0.3 mph SE0.5 kmh SE 15.0 mph24.1 kmh 29.64 in1003.7 mb 0.00 in0.0 mm 0.00 in/hr0.0 mm/hr 0.00 in0.0 mm
04:00 PM 76.0°F24.4°C 60.2°F15.7°C 58% 7.0 mph E11.3 kmh E 12.0 mph19.3 kmh 29.64 in1003.7 mb 0.00 in0.0 mm 0.00 in/hr0.0 mm/hr 0.00 in0.0 mm
04:10 PM 75.7°F24.3°C 59.4°F15.2°C 57% Calm Calm -- 29.63 in1003.4 mb 0.00 in0.0 mm 0.00 in/hr0.0 mm/hr 0.00 in0.0 mm
04:20 PM 75.1°F23.9°C 59.7°F15.4°C 59% 6.2 mph ESE10.0 kmh ESE 13.0 mph20.9 kmh 29.63 in1003.4 mb 0.00 in0.0 mm 0.00 in/hr0.0 mm/hr 0.00 in0.0 mm
04:30 PM 74.8°F23.8°C 60.0°F15.6°C 60% Calm Calm -- 29.63 in1003.4 mb 0.00 in0.0 mm 0.00 in/hr0.0 mm/hr 0.00 in0.0 mm
04:40 PM 74.0°F23.3°C 59.2°F15.1°C 60% 3.0 mph S4.8 kmh S 8.0 mph12.9 kmh 29.63 in1003.4 mb 0.00 in0.0 mm 0.00 in/hr0.0 mm/hr 0.00 in0.0 mm
04:50 PM 74.1°F23.4°C 59.8°F15.4°C 61% 4.5 mph SE7.2 kmh SE 10.0 mph16.1 kmh 29.64 in1003.7 mb 0.00 in0.0 mm 0.00 in/hr0.0 mm/hr 0.00 in0.0 mm
05:00 PM 74.1°F23.4°C 59.8°F15.4°C 61% 1.4 mph ESE2.3 kmh ESE 1.0 mph1.6 kmh 29.64 in1003.7 mb 0.00 in0.0 mm 0.00 in/hr0.0 mm/hr 0.00 in0.0 mm
05:10 PM 73.7°F23.2°C 60.3°F15.7°C 63% 1.5 mph SE2.4 kmh SE -- 29.62 in1003.0 mb 0.00 in0.0 mm 0.00 in/hr0.0 mm/hr 0.00 in0.0 mm
05:20 PM 73.9°F23.3°C 60.5°F15.8°C 63% 6.7 mph SE10.8 kmh SE 13.0 mph20.9 kmh 29.63 in1003.4 mb 0.00 in0.0 mm 0.00 in/hr0.0 mm/hr 0.00 in0.0 mm
05:30 PM 73.5°F23.1°C 59.7°F15.4°C 62% 0.3 mph SE0.5 kmh SE -- 29.63 in1003.4 mb 0.00 in0.0 mm 0.00 in/hr0.0 mm/hr 0.00 in0.0 mm
05:40 PM 72.9°F22.7°C 59.2°F15.1°C 62% 7.4 mph SSE11.9 kmh SSE 12.0 mph19.3 kmh 29.63 in1003.4 mb 0.00 in0.0 mm 0.00 in/hr0.0 mm/hr 0.00 in0.0 mm
05:50 PM 72.6°F22.6°C 58.8°F14.9°C 62% 5.0 mph SSE8.0 kmh SSE 10.0 mph16.1 kmh 29.63 in1003.4 mb 0.00 in0.0 mm 0.00 in/hr0.0 mm/hr 0.00 in0.0 mm
06:00 PM 72.4°F22.4°C 59.5°F15.3°C 64% Calm Calm -- 29.63 in1003.4 mb 0.00 in0.0 mm 0.00 in/hr0.0 mm/hr 0.00 in0.0 mm
06:10 PM 72.0°F22.2°C 59.6°F15.3°C 65% 0.2 mph SSE0.3 kmh SSE -- 29.63 in1003.4 mb 0.00 in0.0 mm 0.00 in/hr0.0 mm/hr 0.00 in0.0 mm
06:20 PM 71.6°F22.0°C 59.2°F15.1°C 65% Calm Calm 1.0 mph1.6 kmh 29.63 in1003.4 mb 0.00 in0.0 mm 0.00 in/hr0.0 mm/hr 0.00 in0.0 mm
06:30 PM 71.2°F21.8°C 60.1°F15.6°C 68% 3.5 mph SSE5.6 kmh SSE 13.0 mph20.9 kmh 29.63 in1003.4 mb 0.00 in0.0 mm 0.00 in/hr0.0 mm/hr 0.00 in0.0 mm
06:40 PM 70.7°F21.5°C 60.0°F15.6°C 69% Calm Calm -- 29.64 in1003.7 mb 0.00 in0.0 mm 0.00 in/hr0.0 mm/hr 0.00 in0.0 mm
06:50 PM 70.3°F21.3°C 60.9°F16.1°C 72% Calm Calm -- 29.64 in1003.7 mb 0.00 in0.0 mm 0.00 in/hr0.0 mm/hr 0.00 in0.0 mm
07:00 PM 69.8°F21.0°C 61.2°F16.2°C 74% Calm Calm -- 29.64 in1003.7 mb 0.00 in0.0 mm 0.00 in/hr0.0 mm/hr 0.00 in0.0 mm
07:10 PM 69.3°F20.7°C 61.5°F16.4°C 76% Calm Calm -- 29.65 in1004.1 mb 0.00 in0.0 mm 0.00 in/hr0.0 mm/hr 0.00 in0.0 mm
07:20 PM 68.8°F20.4°C 61.3°F16.3°C 77% Calm Calm -- 29.65 in1004.1 mb 0.00 in0.0 mm 0.00 in/hr0.0 mm/hr 0.00 in0.0 mm
07:30 PM 68.4°F20.2°C 61.6°F16.4°C 79% Calm Calm -- 29.65 in1004.1 mb 0.00 in0.0 mm 0.00 in/hr0.0 mm/hr 0.00 in0.0 mm
07:40 PM 67.9°F19.9°C 61.5°F16.4°C 80% 2.3 mph SSE3.7 kmh SSE 4.0 mph6.4 kmh 29.65 in1004.1 mb 0.00 in0.0 mm 0.00 in/hr0.0 mm/hr 0.00 in0.0 mm
07:50 PM 67.4°F19.7°C 61.7°F16.5°C 82% Calm Calm -- 29.65 in1004.1 mb 0.00 in0.0 mm 0.00 in/hr0.0 mm/hr 0.00 in0.0 mm
08:00 PM 67.1°F19.5°C 61.4°F16.3°C 82% Calm Calm -- 29.65 in1004.1 mb 0.00 in0.0 mm 0.00 in/hr0.0 mm/hr 0.00 in0.0 mm
08:10 PM 66.7°F19.3°C 61.7°F16.5°C 84% Calm Calm -- 29.65 in1004.1 mb 0.00 in0.0 mm 0.00 in/hr0.0 mm/hr 0.00 in0.0 mm
08:20 PM 66.5°F19.2°C 61.5°F16.4°C 84% Calm Calm -- 29.65 in1004.1 mb 0.00 in0.0 mm 0.00 in/hr0.0 mm/hr 0.00 in0.0 mm
08:30 PM 66.2°F19.0°C 61.6°F16.4°C 85% Calm Calm -- 29.65 in1004.1 mb 0.00 in0.0 mm 0.00 in/hr0.0 mm/hr 0.00 in0.0 mm
08:40 PM 65.9°F18.8°C 61.6°F16.4°C 86% Calm Calm -- 29.65 in1004.1 mb 0.00 in0.0 mm 0.00 in/hr0.0 mm/hr 0.00 in0.0 mm
08:50 PM 65.8°F18.8°C 61.8°F16.6°C 87% Calm Calm -- 29.65 in1004.1 mb 0.00 in0.0 mm 0.00 in/hr0.0 mm/hr 0.00 in0.0 mm
09:00 PM 65.6°F18.7°C 61.9°F16.6°C 88% Calm Calm -- 29.65 in1004.1 mb 0.00 in0.0 mm 0.00 in/hr0.0 mm/hr 0.00 in0.0 mm
09:10 PM 65.5°F18.6°C 61.9°F16.6°C 88% Calm Calm -- 29.65 in1004.1 mb 0.00 in0.0 mm 0.00 in/hr0.0 mm/hr 0.00 in0.0 mm
09:20 PM 65.4°F18.6°C 61.8°F16.6°C 88% Calm Calm -- 29.65 in1004.1 mb 0.00 in0.0 mm 0.00 in/hr0.0 mm/hr 0.00 in0.0 mm
09:30 PM 65.2°F18.4°C 61.9°F16.6°C 89% Calm Calm -- 29.65 in1004.1 mb 0.00 in0.0 mm 0.00 in/hr0.0 mm/hr 0.00 in0.0 mm
09:40 PM 65.2°F18.4°C 61.9°F16.6°C 89% Calm Calm -- 29.65 in1004.1 mb 0.00 in0.0 mm 0.00 in/hr0.0 mm/hr 0.00 in0.0 mm
09:50 PM 65.1°F18.4°C 61.8°F16.6°C 89% Calm Calm -- 29.65 in1004.1 mb 0.00 in0.0 mm 0.00 in/hr0.0 mm/hr 0.00 in0.0 mm
10:00 PM 65.1°F18.4°C 61.8°F16.6°C 89% Calm Calm -- 29.65 in1004.1 mb 0.00 in0.0 mm 0.00 in/hr0.0 mm/hr 0.00 in0.0 mm
10:10 PM 65.0°F18.3°C 62.0°F16.7°C 90% Calm Calm 1.0 mph1.6 kmh 29.65 in1004.1 mb 0.00 in0.0 mm 0.00 in/hr0.0 mm/hr 0.00 in0.0 mm
10:20 PM 65.0°F18.3°C 62.0°F16.7°C 90% Calm Calm -- 29.64 in1003.7 mb 0.00 in0.0 mm 0.00 in/hr0.0 mm/hr 0.00 in0.0 mm
10:30 PM 64.9°F18.3°C 61.9°F16.6°C 90% Calm Calm -- 29.64 in1003.7 mb 0.00 in0.0 mm 0.00 in/hr0.0 mm/hr 0.00 in0.0 mm
10:40 PM 64.9°F18.3°C 61.9°F16.6°C 90% Calm Calm -- 29.64 in1003.7 mb 0.00 in0.0 mm 0.00 in/hr0.0 mm/hr 0.00 in0.0 mm
10:50 PM 64.8°F18.2°C 61.8°F16.6°C 90% Calm Calm -- 29.64 in1003.7 mb 0.00 in0.0 mm 0.00 in/hr0.0 mm/hr 0.00 in0.0 mm
11:00 PM 64.6°F18.1°C 61.6°F16.4°C 90% Calm Calm -- 29.64 in1003.7 mb 0.00 in0.0 mm 0.00 in/hr0.0 mm/hr 0.00 in0.0 mm
11:10 PM 64.4°F18.0°C 61.4°F16.3°C 90% Calm Calm -- 29.63 in1003.4 mb 0.00 in0.0 mm 0.00 in/hr0.0 mm/hr 0.00 in0.0 mm
11:20 PM 64.3°F17.9°C 61.6°F16.4°C 91% Calm Calm -- 29.63 in1003.4 mb 0.00 in0.0 mm 0.00 in/hr0.0 mm/hr 0.00 in0.0 mm
11:30 PM 64.1°F17.8°C 61.4°F16.3°C 91% Calm Calm -- 29.63 in1003.4 mb 0.00 in0.0 mm 0.00 in/hr0.0 mm/hr 0.00 in0.0 mm
11:40 PM 64.0°F17.8°C 61.3°F16.3°C 91% Calm Calm -- 29.63 in1003.4 mb 0.00 in0.0 mm 0.00 in/hr0.0 mm/hr 0.00 in0.0 mm
11:50 PM 64.0°F17.8°C 61.3°F16.3°C 91% Calm Calm -- 29.62 in1003.0 mb 0.00 in0.0 mm 0.00 in/hr0.0 mm/hr 0.00 in0.0 mm